sensor_id;sensor_type;location;lat;lon;timestamp;pressure;altitude;pressure_sealevel;temperature;humidity
26699;BME280;14313;50.892;13.756;2022-09-27T00:00:13;96027.34;;;16.15;59.14
26699;BME280;14313;50.892;13.756;2022-09-27T00:02:38;96031.09;;;15.66;58.90
26699;BME280;14313;50.892;13.756;2022-09-27T00:05:04;96030.50;;;15.94;58.34
26699;BME280;14313;50.892;13.756;2022-09-27T00:07:30;96027.59;;;15.96;58.31
26699;BME280;14313;50.892;13.756;2022-09-27T00:09:55;96033.19;;;16.06;57.96
26699;BME280;14313;50.892;13.756;2022-09-27T00:12:20;96021.53;;;15.77;57.81
26699;BME280;14313;50.892;13.756;2022-09-27T00:14:46;96012.94;;;15.63;59.06
26699;BME280;14313;50.892;13.756;2022-09-27T00:17:11;96009.88;;;16.19;58.15
26699;BME280;14313;50.892;13.756;2022-09-27T00:19:36;96006.75;;;15.81;59.33
26699;BME280;14313;50.892;13.756;2022-09-27T00:22:01;96003.84;;;15.71;59.77
26699;BME280;14313;50.892;13.756;2022-09-27T00:24:27;95997.47;;;16.13;58.62
26699;BME280;14313;50.892;13.756;2022-09-27T00:26:53;96005.13;;;16.21;58.69
26699;BME280;14313;50.892;13.756;2022-09-27T00:29:18;95999.75;;;15.98;59.25
26699;BME280;14313;50.892;13.756;2022-09-27T00:31:44;95997.75;;;15.82;59.73
26699;BME280;14313;50.892;13.756;2022-09-27T00:34:21;95992.47;;;15.94;60.60
26699;BME280;14313;50.892;13.756;2022-09-27T00:36:48;95984.16;;;15.60;60.88
26699;BME280;14313;50.892;13.756;2022-09-27T00:39:14;95984.53;;;16.05;59.85
26699;BME280;14313;50.892;13.756;2022-09-27T00:41:40;95985.00;;;16.14;60.06
26699;BME280;14313;50.892;13.756;2022-09-27T00:47:20;95967.25;;;15.55;61.87
26699;BME280;14313;50.892;13.756;2022-09-27T00:50:01;95959.41;;;15.60;62.78
26699;BME280;14313;50.892;13.756;2022-09-27T00:52:35;95955.09;;;15.47;63.22
26699;BME280;14313;50.892;13.756;2022-09-27T00:55:11;95947.31;;;16.05;61.78
26699;BME280;14313;50.892;13.756;2022-09-27T00:57:38;95941.72;;;15.06;63.65
26699;BME280;14313;50.892;13.756;2022-09-27T01:00:09;95943.59;;;15.53;63.21
26699;BME280;14313;50.892;13.756;2022-09-27T01:02:37;95935.28;;;15.61;63.79
26699;BME280;14313;50.892;13.756;2022-09-27T01:05:05;95935.97;;;15.09;64.45
26699;BME280;14313;50.892;13.756;2022-09-27T01:07:32;95928.53;;;15.47;63.98
26699;BME280;14313;50.892;13.756;2022-09-27T01:09:59;95922.09;;;16.08;62.07
26699;BME280;14313;50.892;13.756;2022-09-27T01:12:41;95920.59;;;16.00;61.61
26699;BME280;14313;50.892;13.756;2022-09-27T01:15:28;95919.41;;;15.85;62.06
26699;BME280;14313;50.892;13.756;2022-09-27T01:18:12;95907.94;;;15.72;62.59
26699;BME280;14313;50.892;13.756;2022-09-27T01:21:04;95900.50;;;15.51;63.00
26699;BME280;14313;50.892;13.756;2022-09-27T01:24:06;95891.78;;;15.14;63.28
26699;BME280;14313;50.892;13.756;2022-09-27T01:27:07;95896.28;;;15.14;63.79
26699;BME280;14313;50.892;13.756;2022-09-27T01:30:06;95904.13;;;15.50;62.89
26699;BME280;14313;50.892;13.756;2022-09-27T01:32:54;95906.00;;;15.20;63.51
26699;BME280;14313;50.892;13.756;2022-09-27T01:38:33;95884.97;;;15.48;63.13
26699;BME280;14313;50.892;13.756;2022-09-27T01:44:24;95876.25;;;15.71;62.99
26699;BME280;14313;50.892;13.756;2022-09-27T01:47:04;95878.28;;;16.10;61.85
26699;BME280;14313;50.892;13.756;2022-09-27T01:49:54;95867.84;;;15.97;62.59
26699;BME280;14313;50.892;13.756;2022-09-27T01:52:26;95858.56;;;14.93;65.92
26699;BME280;14313;50.892;13.756;2022-09-27T01:54:58;95862.75;;;15.31;64.94
26699;BME280;14313;50.892;13.756;2022-09-27T01:57:42;95866.94;;;15.39;65.50
26699;BME280;14313;50.892;13.756;2022-09-27T02:00:15;95864.38;;;15.97;64.08
26699;BME280;14313;50.892;13.756;2022-09-27T02:02:46;95865.44;;;15.43;65.74
26699;BME280;14313;50.892;13.756;2022-09-27T02:05:57;95862.44;;;15.51;65.59
26699;BME280;14313;50.892;13.756;2022-09-27T02:08:50;95842.06;;;15.21;65.94
26699;BME280;14313;50.892;13.756;2022-09-27T02:11:44;95839.56;;;15.08;67.33
26699;BME280;14313;50.892;13.756;2022-09-27T02:14:23;95831.47;;;14.73;68.07
26699;BME280;14313;50.892;13.756;2022-09-27T02:20:07;95828.06;;;14.84;68.28
26699;BME280;14313;50.892;13.756;2022-09-27T02:23:08;95824.84;;;15.12;67.35
26699;BME280;14313;50.892;13.756;2022-09-27T02:25:58;95822.44;;;15.22;67.63
26699;BME280;14313;50.892;13.756;2022-09-27T02:28:42;95815.16;;;15.18;67.85
26699;BME280;14313;50.892;13.756;2022-09-27T02:31:20;95814.81;;;15.26;67.42
26699;BME280;14313;50.892;13.756;2022-09-27T02:33:57;95809.97;;;15.34;66.57
26699;BME280;14313;50.892;13.756;2022-09-27T02:36:24;95814.09;;;15.19;67.30
26699;BME280;14313;50.892;13.756;2022-09-27T02:38:49;95818.53;;;14.95;68.64
26699;BME280;14313;50.892;13.756;2022-09-27T02:41:20;95811.38;;;15.37;67.10
26699;BME280;14313;50.892;13.756;2022-09-27T02:43:52;95801.09;;;14.87;68.41
26699;BME280;14313;50.892;13.756;2022-09-27T02:52:37;95787.06;;;15.75;65.55
26699;BME280;14313;50.892;13.756;2022-09-27T02:58:33;95785.69;;;15.72;65.01
26699;BME280;14313;50.892;13.756;2022-09-27T03:04:27;95778.09;;;15.34;66.43
26699;BME280;14313;50.892;13.756;2022-09-27T03:06:55;95777.94;;;15.06;67.64
26699;BME280;14313;50.892;13.756;2022-09-27T03:09:27;95783.03;;;15.08;67.55
26699;BME280;14313;50.892;13.756;2022-09-27T03:11:53;95779.75;;;15.47;65.93
26699;BME280;14313;50.892;13.756;2022-09-27T03:14:19;95785.91;;;15.71;65.44
26699;BME280;14313;50.892;13.756;2022-09-27T03:17:02;95785.91;;;15.71;65.50
26699;BME280;14313;50.892;13.756;2022-09-27T03:19:47;95770.19;;;15.58;65.79
26699;BME280;14313;50.892;13.756;2022-09-27T03:22:40;95780.22;;;16.02;64.29
26699;BME280;14313;50.892;13.756;2022-09-27T03:25:07;95766.28;;;15.95;64.79
26699;BME280;14313;50.892;13.756;2022-09-27T03:27:32;95765.25;;;15.85;64.86
26699;BME280;14313;50.892;13.756;2022-09-27T03:29:59;95765.13;;;15.68;65.35
26699;BME280;14313;50.892;13.756;2022-09-27T03:32:25;95767.50;;;15.46;65.86
26699;BME280;14313;50.892;13.756;2022-09-27T03:35:11;95759.38;;;16.23;64.44
26699;BME280;14313;50.892;13.756;2022-09-27T03:37:36;95760.50;;;15.52;66.13
26699;BME280;14313;50.892;13.756;2022-09-27T03:40:02;95754.38;;;15.74;66.26
26699;BME280;14313;50.892;13.756;2022-09-27T03:42:28;95756.09;;;15.92;66.42
26699;BME280;14313;50.892;13.756;2022-09-27T03:44:53;95751.25;;;15.77;67.05
26699;BME280;14313;50.892;13.756;2022-09-27T03:47:19;95752.28;;;16.00;66.63
26699;BME280;14313;50.892;13.756;2022-09-27T03:49:46;95747.88;;;16.05;66.83
26699;BME280;14313;50.892;13.756;2022-09-27T03:52:12;95734.59;;;15.82;67.33
26699;BME280;14313;50.892;13.756;2022-09-27T03:54:38;95743.75;;;15.51;68.24
26699;BME280;14313;50.892;13.756;2022-09-27T03:57:03;95739.00;;;15.53;67.94
26699;BME280;14313;50.892;13.756;2022-09-27T03:59:29;95727.56;;;15.53;67.98
26699;BME280;14313;50.892;13.756;2022-09-27T04:02:24;95725.59;;;15.71;67.84
26699;BME280;14313;50.892;13.756;2022-09-27T04:05:22;95725.13;;;15.86;66.98
26699;BME280;14313;50.892;13.756;2022-09-27T04:07:49;95732.38;;;16.02;66.35
26699;BME280;14313;50.892;13.756;2022-09-27T04:10:16;95725.72;;;15.76;67.05
26699;BME280;14313;50.892;13.756;2022-09-27T04:12:42;95725.31;;;16.08;66.20
26699;BME280;14313;50.892;13.756;2022-09-27T04:15:08;95712.19;;;15.55;67.56
26699;BME280;14313;50.892;13.756;2022-09-27T04:17:49;95711.16;;;15.32;67.89
26699;BME280;14313;50.892;13.756;2022-09-27T04:20:35;95711.63;;;15.64;67.62
26699;BME280;14313;50.892;13.756;2022-09-27T04:23:10;95719.91;;;15.45;67.61
26699;BME280;14313;50.892;13.756;2022-09-27T04:25:38;95708.72;;;15.89;66.73
26699;BME280;14313;50.892;13.756;2022-09-27T04:28:13;95707.91;;;15.65;67.36
26699;BME280;14313;50.892;13.756;2022-09-27T04:30:39;95703.16;;;15.44;68.35
26699;BME280;14313;50.892;13.756;2022-09-27T04:33:11;95707.25;;;15.58;67.63
26699;BME280;14313;50.892;13.756;2022-09-27T04:35:55;95700.75;;;15.08;68.47
26699;BME280;14313;50.892;13.756;2022-09-27T04:38:55;95699.34;;;15.17;68.03
26699;BME280;14313;50.892;13.756;2022-09-27T04:41:22;95709.06;;;15.46;67.62
26699;BME280;14313;50.892;13.756;2022-09-27T04:43:48;95695.06;;;15.51;66.92
26699;BME280;14313;50.892;13.756;2022-09-27T04:46:14;95701.22;;;15.74;66.48
26699;BME280;14313;50.892;13.756;2022-09-27T04:48:39;95707.59;;;15.62;66.84
26699;BME280;14313;50.892;13.756;2022-09-27T04:51:06;95703.97;;;15.45;67.11
26699;BME280;14313;50.892;13.756;2022-09-27T04:53:31;95702.78;;;16.10;65.07
26699;BME280;14313;50.892;13.756;2022-09-27T04:55:58;95704.34;;;15.48;67.21
26699;BME280;14313;50.892;13.756;2022-09-27T04:58:25;95701.69;;;15.48;66.90
26699;BME280;14313;50.892;13.756;2022-09-27T05:00:51;95697.50;;;15.75;65.77
26699;BME280;14313;50.892;13.756;2022-09-27T05:03:36;95703.31;;;15.72;65.80
26699;BME280;14313;50.892;13.756;2022-09-27T05:06:09;95697.88;;;15.67;66.06
26699;BME280;14313;50.892;13.756;2022-09-27T05:08:34;95699.72;;;15.55;66.56
26699;BME280;14313;50.892;13.756;2022-09-27T05:11:24;95709.41;;;15.85;66.12
26699;BME280;14313;50.892;13.756;2022-09-27T05:14:27;95697.88;;;15.79;66.36
26699;BME280;14313;50.892;13.756;2022-09-27T05:17:04;95700.41;;;15.74;66.35
26699;BME280;14313;50.892;13.756;2022-09-27T05:19:54;95709.66;;;15.60;66.69
26699;BME280;14313;50.892;13.756;2022-09-27T05:22:35;95701.13;;;15.69;67.24
26699;BME280;14313;50.892;13.756;2022-09-27T05:25:02;95703.28;;;15.26;68.34
26699;BME280;14313;50.892;13.756;2022-09-27T05:27:27;95699.94;;;15.77;66.94
26699;BME280;14313;50.892;13.756;2022-09-27T05:29:55;95694.50;;;15.84;67.28
26699;BME280;14313;50.892;13.756;2022-09-27T05:32:25;95706.06;;;15.66;67.87
26699;BME280;14313;50.892;13.756;2022-09-27T05:35:04;95699.59;;;15.73;67.88
26699;BME280;14313;50.892;13.756;2022-09-27T05:37:30;95697.66;;;15.69;67.97
26699;BME280;14313;50.892;13.756;2022-09-27T05:39:57;95696.81;;;15.22;69.64
26699;BME280;14313;50.892;13.756;2022-09-27T05:42:23;95698.31;;;15.18;70.02
26699;BME280;14313;50.892;13.756;2022-09-27T05:44:48;95700.53;;;15.32;69.60
26699;BME280;14313;50.892;13.756;2022-09-27T05:47:14;95704.66;;;15.17;70.05
26699;BME280;14313;50.892;13.756;2022-09-27T05:49:40;95691.25;;;15.00;70.61
26699;BME280;14313;50.892;13.756;2022-09-27T05:52:07;95693.19;;;14.93;71.03
26699;BME280;14313;50.892;13.756;2022-09-27T05:54:32;95695.88;;;15.40;69.97
26699;BME280;14313;50.892;13.756;2022-09-27T05:56:58;95696.56;;;15.35;68.79
26699;BME280;14313;50.892;13.756;2022-09-27T05:59:50;95697.88;;;15.56;68.89
26699;BME280;14313;50.892;13.756;2022-09-27T06:02:18;95698.44;;;15.46;68.72
26699;BME280;14313;50.892;13.756;2022-09-27T06:05:14;95690.94;;;15.43;69.65
26699;BME280;14313;50.892;13.756;2022-09-27T06:07:39;95694.16;;;15.80;68.50
26699;BME280;14313;50.892;13.756;2022-09-27T06:10:08;95691.25;;;15.93;68.27
26699;BME280;14313;50.892;13.756;2022-09-27T06:12:33;95691.63;;;15.73;68.67
26699;BME280;14313;50.892;13.756;2022-09-27T06:14:59;95698.56;;;15.28;70.64
26699;BME280;14313;50.892;13.756;2022-09-27T06:17:33;95686.44;;;15.44;70.38
26699;BME280;14313;50.892;13.756;2022-09-27T06:20:01;95694.13;;;14.99;70.90
26699;BME280;14313;50.892;13.756;2022-09-27T06:22:27;95689.88;;;15.21;69.68
26699;BME280;14313;50.892;13.756;2022-09-27T06:24:57;95689.66;;;15.22;70.55
26699;BME280;14313;50.892;13.756;2022-09-27T06:27:26;95689.56;;;15.64;69.25
26699;BME280;14313;50.892;13.756;2022-09-27T06:30:08;95684.00;;;15.65;69.73
26699;BME280;14313;50.892;13.756;2022-09-27T06:32:44;95692.56;;;15.79;69.84
26699;BME280;14313;50.892;13.756;2022-09-27T06:35:16;95692.66;;;15.84;69.17
26699;BME280;14313;50.892;13.756;2022-09-27T06:37:42;95688.88;;;15.57;70.32
26699;BME280;14313;50.892;13.756;2022-09-27T06:40:08;95688.72;;;15.75;69.41
26699;BME280;14313;50.892;13.756;2022-09-27T06:43:08;95692.81;;;15.54;70.11
26699;BME280;14313;50.892;13.756;2022-09-27T06:46:06;95693.59;;;16.18;68.35
26699;BME280;14313;50.892;13.756;2022-09-27T06:49:00;95687.41;;;16.01;68.84
26699;BME280;14313;50.892;13.756;2022-09-27T06:51:25;95687.69;;;16.16;68.65
26699;BME280;14313;50.892;13.756;2022-09-27T06:53:52;95698.28;;;16.39;68.16
26699;BME280;14313;50.892;13.756;2022-09-27T06:56:17;95700.84;;;15.94;69.72
26699;BME280;14313;50.892;13.756;2022-09-27T06:58:48;95707.44;;;15.22;70.98
26699;BME280;14313;50.892;13.756;2022-09-27T07:01:44;95713.50;;;16.15;68.88
26699;BME280;14313;50.892;13.756;2022-09-27T07:04:37;95713.75;;;16.02;67.90
26699;BME280;14313;50.892;13.756;2022-09-27T07:07:13;95704.88;;;15.97;68.70
26699;BME280;14313;50.892;13.756;2022-09-27T07:09:44;95710.00;;;15.63;69.35
26699;BME280;14313;50.892;13.756;2022-09-27T07:12:10;95712.31;;;15.60;69.34
26699;BME280;14313;50.892;13.756;2022-09-27T07:14:37;95707.22;;;15.70;68.64
26699;BME280;14313;50.892;13.756;2022-09-27T07:17:03;95702.13;;;15.80;67.81
26699;BME280;14313;50.892;13.756;2022-09-27T07:19:34;95703.84;;;16.26;67.61
26699;BME280;14313;50.892;13.756;2022-09-27T07:22:00;95716.69;;;15.89;67.45
26699;BME280;14313;50.892;13.756;2022-09-27T07:24:26;95712.22;;;16.18;68.01
26699;BME280;14313;50.892;13.756;2022-09-27T07:26:52;95722.81;;;16.58;66.56
26699;BME280;14313;50.892;13.756;2022-09-27T07:29:20;95721.09;;;16.24;67.33
26699;BME280;14313;50.892;13.756;2022-09-27T07:31:47;95724.91;;;16.28;66.63
26699;BME280;14313;50.892;13.756;2022-09-27T07:34:12;95713.75;;;16.02;67.04
26699;BME280;14313;50.892;13.756;2022-09-27T07:36:38;95722.50;;;16.66;65.75
26699;BME280;14313;50.892;13.756;2022-09-27T07:39:04;95721.03;;;16.07;66.04
26699;BME280;14313;50.892;13.756;2022-09-27T07:41:31;95721.59;;;16.49;65.16
26699;BME280;14313;50.892;13.756;2022-09-27T07:43:57;95723.88;;;16.57;65.13
26699;BME280;14313;50.892;13.756;2022-09-27T07:46:23;95717.56;;;17.03;63.67
26699;BME280;14313;50.892;13.756;2022-09-27T07:49:05;95711.69;;;16.73;65.05
26699;BME280;14313;50.892;13.756;2022-09-27T07:51:44;95713.56;;;16.89;63.16
26699;BME280;14313;50.892;13.756;2022-09-27T07:54:48;95713.38;;;16.50;64.36
26699;BME280;14313;50.892;13.756;2022-09-27T07:57:36;95720.66;;;16.55;63.84
26699;BME280;14313;50.892;13.756;2022-09-27T08:00:04;95715.25;;;16.78;63.90
26699;BME280;14313;50.892;13.756;2022-09-27T08:02:38;95714.59;;;16.88;62.68
26699;BME280;14313;50.892;13.756;2022-09-27T08:05:05;95720.47;;;16.73;64.20
26699;BME280;14313;50.892;13.756;2022-09-27T08:07:30;95717.09;;;16.78;64.09
26699;BME280;14313;50.892;13.756;2022-09-27T08:09:57;95720.50;;;16.90;62.78
26699;BME280;14313;50.892;13.756;2022-09-27T08:12:23;95708.28;;;16.60;63.92
26699;BME280;14313;50.892;13.756;2022-09-27T08:14:48;95714.47;;;16.94;63.56
26699;BME280;14313;50.892;13.756;2022-09-27T08:17:15;95716.44;;;16.71;63.61
26699;BME280;14313;50.892;13.756;2022-09-27T08:19:59;95716.75;;;17.36;61.96
26699;BME280;14313;50.892;13.756;2022-09-27T08:23:08;95724.56;;;16.92;61.42
26699;BME280;14313;50.892;13.756;2022-09-27T08:25:37;95721.59;;;17.05;61.60
26699;BME280;14313;50.892;13.756;2022-09-27T08:28:07;95719.00;;;17.11;61.24
26699;BME280;14313;50.892;13.756;2022-09-27T08:30:38;95725.22;;;17.33;61.33
26699;BME280;14313;50.892;13.756;2022-09-27T08:33:05;95728.75;;;17.05;61.46
26699;BME280;14313;50.892;13.756;2022-09-27T08:35:31;95731.66;;;17.03;61.82
26699;BME280;14313;50.892;13.756;2022-09-27T08:37:59;95738.19;;;16.96;62.64
26699;BME280;14313;50.892;13.756;2022-09-27T08:40:56;95736.34;;;16.96;61.89
26699;BME280;14313;50.892;13.756;2022-09-27T08:43:46;95731.44;;;17.38;61.11
26699;BME280;14313;50.892;13.756;2022-09-27T08:48:51;95721.34;;;17.74;59.89
26699;BME280;14313;50.892;13.756;2022-09-27T08:51:20;95721.81;;;17.71;59.50
26699;BME280;14313;50.892;13.756;2022-09-27T08:53:56;95728.38;;;17.46;61.67
26699;BME280;14313;50.892;13.756;2022-09-27T08:56:23;95730.34;;;16.89;61.88
26699;BME280;14313;50.892;13.756;2022-09-27T08:58:59;95734.50;;;16.97;61.50
26699;BME280;14313;50.892;13.756;2022-09-27T09:01:30;95729.44;;;18.44;58.27
26699;BME280;14313;50.892;13.756;2022-09-27T09:04:02;95736.41;;;18.94;56.67
26699;BME280;14313;50.892;13.756;2022-09-27T09:06:47;95737.78;;;18.26;58.76
26699;BME280;14313;50.892;13.756;2022-09-27T09:09:31;95722.72;;;18.42;57.73
26699;BME280;14313;50.892;13.756;2022-09-27T09:23:50;95784.03;;;16.18;70.35
26699;BME280;14313;50.892;13.756;2022-09-27T09:32:00;95781.72;;;14.39;75.91
26699;BME280;14313;50.892;13.756;2022-09-27T09:34:43;95776.47;;;14.32;76.37
26699;BME280;14313;50.892;13.756;2022-09-27T09:37:17;95775.22;;;14.35;75.16
26699;BME280;14313;50.892;13.756;2022-09-27T09:39:57;95777.19;;;14.58;75.01
26699;BME280;14313;50.892;13.756;2022-09-27T09:42:31;95763.91;;;14.58;74.73
26699;BME280;14313;50.892;13.756;2022-09-27T09:45:14;95761.94;;;15.36;74.01
26699;BME280;14313;50.892;13.756;2022-09-27T09:47:50;95765.03;;;15.21;73.78
26699;BME280;14313;50.892;13.756;2022-09-27T09:50:23;95767.91;;;15.73;72.79
26699;BME280;14313;50.892;13.756;2022-09-27T09:52:58;95752.00;;;16.13;72.20
26699;BME280;14313;50.892;13.756;2022-09-27T09:55:32;95766.63;;;15.64;72.41
26699;BME280;14313;50.892;13.756;2022-09-27T09:58:19;95759.69;;;15.51;71.43
26699;BME280;14313;50.892;13.756;2022-09-27T10:00:50;95753.41;;;16.15;70.50
26699;BME280;14313;50.892;13.756;2022-09-27T10:03:18;95752.59;;;16.03;70.84
26699;BME280;14313;50.892;13.756;2022-09-27T10:05:44;95753.03;;;16.24;67.98
26699;BME280;14313;50.892;13.756;2022-09-27T10:08:17;95746.16;;;15.99;68.39
26699;BME280;14313;50.892;13.756;2022-09-27T10:10:46;95748.53;;;16.24;69.91
26699;BME280;14313;50.892;13.756;2022-09-27T10:13:32;95745.25;;;16.34;68.92
26699;BME280;14313;50.892;13.756;2022-09-27T10:16:09;95745.22;;;17.02;66.30
26699;BME280;14313;50.892;13.756;2022-09-27T10:18:39;95739.91;;;18.07;63.44
26699;BME280;14313;50.892;13.756;2022-09-27T10:21:12;95741.03;;;19.62;61.52
26699;BME280;14313;50.892;13.756;2022-09-27T10:24:04;95725.91;;;21.22;53.49
26699;BME280;14313;50.892;13.756;2022-09-27T10:26:48;95735.28;;;21.65;53.09
26699;BME280;14313;50.892;13.756;2022-09-27T10:31:48;95744.72;;;18.97;57.74
26699;BME280;14313;50.892;13.756;2022-09-27T10:39:29;95766.06;;;17.22;62.43
26699;BME280;14313;50.892;13.756;2022-09-27T10:41:55;95772.81;;;16.96;63.29
26699;BME280;14313;50.892;13.756;2022-09-27T10:44:38;95779.69;;;17.09;62.30
26699;BME280;14313;50.892;13.756;2022-09-27T10:47:21;95767.53;;;17.13;62.18
26699;BME280;14313;50.892;13.756;2022-09-27T10:50:24;95782.72;;;17.45;61.91
26699;BME280;14313;50.892;13.756;2022-09-27T10:53:12;95825.81;;;16.57;62.89
26699;BME280;14313;50.892;13.756;2022-09-27T10:55:39;95820.47;;;14.40;68.42
26699;BME280;14313;50.892;13.756;2022-09-27T10:58:17;95834.25;;;13.87;71.34
26699;BME280;14313;50.892;13.756;2022-09-27T11:00:43;95827.56;;;13.60;70.82
26699;BME280;14313;50.892;13.756;2022-09-27T11:03:17;95839.28;;;13.21;71.47
26699;BME280;14313;50.892;13.756;2022-09-27T11:05:43;95836.53;;;14.02;69.87
26699;BME280;14313;50.892;13.756;2022-09-27T11:11:03;95832.44;;;14.79;69.05
26699;BME280;14313;50.892;13.756;2022-09-27T11:13:29;95834.94;;;14.74;69.10
26699;BME280;14313;50.892;13.756;2022-09-27T11:16:09;95838.88;;;14.53;69.15
26699;BME280;14313;50.892;13.756;2022-09-27T11:18:53;95836.31;;;14.94;68.97
26699;BME280;14313;50.892;13.756;2022-09-27T11:21:45;95844.28;;;16.01;66.81
26699;BME280;14313;50.892;13.756;2022-09-27T11:24:37;95843.78;;;15.16;67.14
26699;BME280;14313;50.892;13.756;2022-09-27T11:27:20;95851.75;;;14.68;68.53
26699;BME280;14313;50.892;13.756;2022-09-27T11:30:13;95852.72;;;14.55;72.61
26699;BME280;14313;50.892;13.756;2022-09-27T11:36:27;95843.28;;;14.59;73.43
26699;BME280;14313;50.892;13.756;2022-09-27T11:39:10;95840.22;;;15.87;70.64
26699;BME280;14313;50.892;13.756;2022-09-27T11:47:35;95828.91;;;16.78;66.56
26699;BME280;14313;50.892;13.756;2022-09-27T11:50:18;95824.13;;;16.91;65.67
26699;BME280;14313;50.892;13.756;2022-09-27T11:52:50;95839.75;;;15.66;66.94
26699;BME280;14313;50.892;13.756;2022-09-27T11:58:20;95827.78;;;15.46;68.16
26699;BME280;14313;50.892;13.756;2022-09-27T12:01:02;95835.16;;;16.08;67.47
26699;BME280;14313;50.892;13.756;2022-09-27T12:06:35;95838.47;;;20.13;55.46
26699;BME280;14313;50.892;13.756;2022-09-27T12:09:08;95844.06;;;18.72;58.91
26699;BME280;14313;50.892;13.756;2022-09-27T12:11:45;95840.28;;;18.68;59.00
26699;BME280;14313;50.892;13.756;2022-09-27T12:14:24;95836.91;;;18.18;58.69
26699;BME280;14313;50.892;13.756;2022-09-27T12:16:56;95848.75;;;19.89;55.80
26699;BME280;14313;50.892;13.756;2022-09-27T12:19:44;95836.50;;;18.86;57.52
26699;BME280;14313;50.892;13.756;2022-09-27T12:22:20;95843.97;;;18.46;59.89
26699;BME280;14313;50.892;13.756;2022-09-27T12:24:49;95843.19;;;16.72;62.53
26699;BME280;14313;50.892;13.756;2022-09-27T12:27:35;95848.06;;;15.58;66.42
26699;BME280;14313;50.892;13.756;2022-09-27T12:30:03;95856.16;;;15.22;69.02
26699;BME280;14313;50.892;13.756;2022-09-27T12:32:34;95850.03;;;15.63;68.42
26699;BME280;14313;50.892;13.756;2022-09-27T12:35:08;95857.81;;;15.46;68.30
26699;BME280;14313;50.892;13.756;2022-09-27T12:37:46;95855.59;;;15.31;69.21
26699;BME280;14313;50.892;13.756;2022-09-27T12:40:25;95853.81;;;16.48;67.99
26699;BME280;14313;50.892;13.756;2022-09-27T12:43:00;95858.28;;;17.23;65.71
26699;BME280;14313;50.892;13.756;2022-09-27T12:48:51;95859.88;;;16.95;62.75
26699;BME280;14313;50.892;13.756;2022-09-27T12:51:21;95851.88;;;18.79;59.80
26699;BME280;14313;50.892;13.756;2022-09-27T13:05:45;95861.09;;;18.66;55.20
26699;BME280;14313;50.892;13.756;2022-09-27T13:08:49;95862.81;;;18.39;56.11
26699;BME280;14313;50.892;13.756;2022-09-27T13:11:57;95870.56;;;17.69;56.51
26699;BME280;14313;50.892;13.756;2022-09-27T13:14:29;95870.50;;;17.24;60.57
26699;BME280;14313;50.892;13.756;2022-09-27T13:16:55;95865.63;;;18.49;55.93
26699;BME280;14313;50.892;13.756;2022-09-27T13:19:41;95863.44;;;18.85;53.40
26699;BME280;14313;50.892;13.756;2022-09-27T13:25:00;95868.94;;;17.84;56.22
26699;BME280;14313;50.892;13.756;2022-09-27T13:27:51;95864.00;;;18.48;56.05
26699;BME280;14313;50.892;13.756;2022-09-27T13:35:38;95880.09;;;18.53;54.92
26699;BME280;14313;50.892;13.756;2022-09-27T13:38:22;95880.75;;;17.88;54.32
26699;BME280;14313;50.892;13.756;2022-09-27T13:40:49;95891.78;;;16.44;57.61
26699;BME280;14313;50.892;13.756;2022-09-27T13:43:40;95892.25;;;17.61;56.28
26699;BME280;14313;50.892;13.756;2022-09-27T13:46:36;95882.94;;;19.55;50.39
26699;BME280;14313;50.892;13.756;2022-09-27T13:49:20;95883.22;;;20.55;48.17
26699;BME280;14313;50.892;13.756;2022-09-27T13:52:38;95896.25;;;19.77;49.28
26699;BME280;14313;50.892;13.756;2022-09-27T13:55:39;95894.41;;;18.09;54.19
26699;BME280;14313;50.892;13.756;2022-09-27T14:00:47;95902.59;;;17.00;55.83
26699;BME280;14313;50.892;13.756;2022-09-27T14:03:26;95903.28;;;17.81;55.12
26699;BME280;14313;50.892;13.756;2022-09-27T14:05:56;95919.50;;;17.63;54.53
26699;BME280;14313;50.892;13.756;2022-09-27T14:08:33;95922.66;;;18.60;52.48
26699;BME280;14313;50.892;13.756;2022-09-27T14:11:01;95911.63;;;19.65;50.25
26699;BME280;14313;50.892;13.756;2022-09-27T14:13:29;95908.91;;;19.87;49.89
26699;BME280;14313;50.892;13.756;2022-09-27T14:16:03;95908.44;;;18.93;51.54
26699;BME280;14313;50.892;13.756;2022-09-27T14:18:30;95911.38;;;18.19;53.31
26699;BME280;14313;50.892;13.756;2022-09-27T14:21:14;95912.09;;;18.87;51.55
26699;BME280;14313;50.892;13.756;2022-09-27T14:26:46;95921.81;;;17.02;55.63
26699;BME280;14313;50.892;13.756;2022-09-27T14:29:17;95929.09;;;17.07;55.54
26699;BME280;14313;50.892;13.756;2022-09-27T14:31:42;95932.94;;;16.88;55.21
26699;BME280;14313;50.892;13.756;2022-09-27T14:34:12;95936.19;;;16.08;57.51
26699;BME280;14313;50.892;13.756;2022-09-27T14:36:43;95935.28;;;16.38;57.34
26699;BME280;14313;50.892;13.756;2022-09-27T14:39:32;95942.66;;;16.01;58.17
26699;BME280;14313;50.892;13.756;2022-09-27T14:42:18;95950.03;;;15.87;58.92
26699;BME280;14313;50.892;13.756;2022-09-27T14:44:44;95953.47;;;15.76;59.39
26699;BME280;14313;50.892;13.756;2022-09-27T14:47:20;95947.00;;;15.72;59.35
26699;BME280;14313;50.892;13.756;2022-09-27T14:50:23;95943.75;;;16.70;56.92
26699;BME280;14313;50.892;13.756;2022-09-27T14:52:49;95954.06;;;16.66;58.13
26699;BME280;14313;50.892;13.756;2022-09-27T14:55:22;95946.16;;;16.36;58.64
26699;BME280;14313;50.892;13.756;2022-09-27T14:57:50;95951.00;;;16.28;58.58
26699;BME280;14313;50.892;13.756;2022-09-27T15:00:22;95943.59;;;16.53;57.41
26699;BME280;14313;50.892;13.756;2022-09-27T15:02:50;95946.50;;;16.28;59.01
26699;BME280;14313;50.892;13.756;2022-09-27T15:05:21;95950.81;;;15.76;59.54
26699;BME280;14313;50.892;13.756;2022-09-27T15:07:47;95953.06;;;16.02;57.82
26699;BME280;14313;50.892;13.756;2022-09-27T15:10:25;95948.56;;;16.26;57.64